sensor_id;sensor_type;location;lat;lon;timestamp;pressure;altitude;pressure_sealevel;temperature;humidity
76746;BME280;65671;49.976;20.038;2022-12-24T00:01:07;97029.56;;;4.78;87.49
76746;BME280;65671;49.976;20.038;2022-12-24T00:03:33;97025.75;;;4.75;87.56
76746;BME280;65671;49.976;20.038;2022-12-24T00:06:03;97033.38;;;4.73;88.17
76746;BME280;65671;49.976;20.038;2022-12-24T00:08:30;97026.47;;;4.76;87.98
76746;BME280;65671;49.976;20.038;2022-12-24T00:10:55;97023.00;;;4.68;87.97
76746;BME280;65671;49.976;20.038;2022-12-24T00:13:21;97028.34;;;4.65;88.51
76746;BME280;65671;49.976;20.038;2022-12-24T00:15:47;97029.16;;;4.69;89.00
76746;BME280;65671;49.976;20.038;2022-12-24T00:18:13;97024.56;;;4.76;89.08
76746;BME280;65671;49.976;20.038;2022-12-24T00:20:38;97033.78;;;4.79;89.12
76746;BME280;65671;49.976;20.038;2022-12-24T00:23:04;97031.09;;;4.75;89.35
76746;BME280;65671;49.976;20.038;2022-12-24T00:25:29;97028.00;;;4.73;89.90
76746;BME280;65671;49.976;20.038;2022-12-24T00:27:55;97022.66;;;4.73;89.96
76746;BME280;65671;49.976;20.038;2022-12-24T00:30:20;97025.69;;;4.65;90.24
76746;BME280;65671;49.976;20.038;2022-12-24T00:32:46;97019.91;;;4.59;90.26
76746;BME280;65671;49.976;20.038;2022-12-24T00:35:11;97016.44;;;4.55;90.53
76746;BME280;65671;49.976;20.038;2022-12-24T00:37:36;97016.81;;;4.54;91.23
76746;BME280;65671;49.976;20.038;2022-12-24T00:40:02;97010.72;;;4.60;91.01
76746;BME280;65671;49.976;20.038;2022-12-24T00:42:28;96998.06;;;4.57;90.67
76746;BME280;65671;49.976;20.038;2022-12-24T00:44:53;97006.50;;;4.59;90.93
76746;BME280;65671;49.976;20.038;2022-12-24T00:47:19;97003.44;;;4.64;91.89
76746;BME280;65671;49.976;20.038;2022-12-24T00:49:44;97001.16;;;4.63;91.88
76746;BME280;65671;49.976;20.038;2022-12-24T00:52:10;96995.38;;;4.61;91.08
76746;BME280;65671;49.976;20.038;2022-12-24T00:54:35;96998.47;;;4.59;91.17
76746;BME280;65671;49.976;20.038;2022-12-24T00:57:00;97000.41;;;4.66;91.19
76746;BME280;65671;49.976;20.038;2022-12-24T00:59:26;96996.91;;;4.58;91.00
76746;BME280;65671;49.976;20.038;2022-12-24T01:01:51;96986.63;;;4.71;91.06
76746;BME280;65671;49.976;20.038;2022-12-24T01:04:17;96990.44;;;4.70;91.29
76746;BME280;65671;49.976;20.038;2022-12-24T01:07:01;96975.50;;;4.65;91.59
76746;BME280;65671;49.976;20.038;2022-12-24T01:09:27;96981.28;;;4.74;91.20
76746;BME280;65671;49.976;20.038;2022-12-24T01:11:52;96976.69;;;4.78;91.84
76746;BME280;65671;49.976;20.038;2022-12-24T01:14:17;96975.16;;;4.77;90.74
76746;BME280;65671;49.976;20.038;2022-12-24T01:16:43;96978.22;;;4.69;90.74
76746;BME280;65671;49.976;20.038;2022-12-24T01:19:08;96967.09;;;4.74;91.16
76746;BME280;65671;49.976;20.038;2022-12-24T01:21:35;96966.34;;;4.73;90.73
76746;BME280;65671;49.976;20.038;2022-12-24T01:24:00;96958.72;;;4.82;90.91
76746;BME280;65671;49.976;20.038;2022-12-24T01:26:26;96947.94;;;4.68;90.79
76746;BME280;65671;49.976;20.038;2022-12-24T01:28:51;96947.13;;;4.54;90.24
76746;BME280;65671;49.976;20.038;2022-12-24T01:31:17;96941.00;;;4.64;91.66
76746;BME280;65671;49.976;20.038;2022-12-24T01:33:45;96940.66;;;4.65;91.25
76746;BME280;65671;49.976;20.038;2022-12-24T01:36:11;96939.44;;;4.48;91.69
76746;BME280;65671;49.976;20.038;2022-12-24T01:38:37;96937.44;;;4.31;91.05
76746;BME280;65671;49.976;20.038;2022-12-24T01:41:03;96939.41;;;4.41;91.61
76746;BME280;65671;49.976;20.038;2022-12-24T01:43:47;96927.22;;;4.62;92.21
76746;BME280;65671;49.976;20.038;2022-12-24T01:46:23;96925.69;;;4.64;91.84
76746;BME280;65671;49.976;20.038;2022-12-24T01:48:56;96906.84;;;4.43;90.93
76746;BME280;65671;49.976;20.038;2022-12-24T01:51:31;96931.50;;;4.77;90.22
76746;BME280;65671;49.976;20.038;2022-12-24T01:56:49;96929.13;;;4.61;89.88
76746;BME280;65671;49.976;20.038;2022-12-24T01:59:17;96934.84;;;4.53;90.92
76746;BME280;65671;49.976;20.038;2022-12-24T02:01:46;96944.81;;;4.48;90.09
76746;BME280;65671;49.976;20.038;2022-12-24T02:04:43;96939.03;;;4.43;90.27
76746;BME280;65671;49.976;20.038;2022-12-24T02:07:07;96944.75;;;4.38;90.47
76746;BME280;65671;49.976;20.038;2022-12-24T02:09:34;96948.16;;;4.31;90.26
76746;BME280;65671;49.976;20.038;2022-12-24T02:12:02;96925.63;;;4.39;90.37
76746;BME280;65671;49.976;20.038;2022-12-24T02:14:29;96943.97;;;4.37;89.98
76746;BME280;65671;49.976;20.038;2022-12-24T02:30:35;96920.69;;;4.56;90.15
76746;BME280;65671;49.976;20.038;2022-12-24T02:33:37;96921.81;;;4.47;90.49
76746;BME280;65671;49.976;20.038;2022-12-24T02:36:22;96924.19;;;4.63;90.44
76746;BME280;65671;49.976;20.038;2022-12-24T02:39:01;96920.03;;;4.87;91.06
76746;BME280;65671;49.976;20.038;2022-12-24T02:41:36;96918.78;;;4.53;90.57
76746;BME280;65671;49.976;20.038;2022-12-24T02:44:26;96901.94;;;4.59;90.75
76746;BME280;65671;49.976;20.038;2022-12-24T02:46:52;96913.81;;;4.58;90.46
76746;BME280;65671;49.976;20.038;2022-12-24T02:49:20;96921.13;;;4.68;90.59
76746;BME280;65671;49.976;20.038;2022-12-24T02:51:45;96911.13;;;4.55;91.33
76746;BME280;65671;49.976;20.038;2022-12-24T02:54:12;96914.22;;;4.67;90.27
76746;BME280;65671;49.976;20.038;2022-12-24T02:56:44;96919.59;;;4.71;91.55
76746;BME280;65671;49.976;20.038;2022-12-24T02:59:29;96910.41;;;4.72;90.93
76746;BME280;65671;49.976;20.038;2022-12-24T03:04:46;96920.38;;;4.71;90.99
76746;BME280;65671;49.976;20.038;2022-12-24T03:07:18;96916.88;;;4.64;91.40
76746;BME280;65671;49.976;20.038;2022-12-24T03:09:55;96917.63;;;4.61;91.52
76746;BME280;65671;49.976;20.038;2022-12-24T03:14:59;96918.41;;;4.61;91.77
76746;BME280;65671;49.976;20.038;2022-12-24T03:20:00;96921.91;;;4.69;92.26
76746;BME280;65671;49.976;20.038;2022-12-24T03:22:27;96919.97;;;4.62;91.71
76746;BME280;65671;49.976;20.038;2022-12-24T03:24:54;96922.63;;;4.62;92.09
76746;BME280;65671;49.976;20.038;2022-12-24T03:27:20;96925.69;;;4.57;91.82
76746;BME280;65671;49.976;20.038;2022-12-24T03:29:46;96921.41;;;4.42;92.14
76746;BME280;65671;49.976;20.038;2022-12-24T03:32:11;96924.13;;;4.49;92.57
76746;BME280;65671;49.976;20.038;2022-12-24T03:34:37;96935.59;;;4.46;92.58
76746;BME280;65671;49.976;20.038;2022-12-24T03:37:03;96922.56;;;4.41;92.75
76746;BME280;65671;49.976;20.038;2022-12-24T03:39:28;96931.00;;;4.39;92.69
76746;BME280;65671;49.976;20.038;2022-12-24T03:41:54;96919.91;;;4.44;92.63
76746;BME280;65671;49.976;20.038;2022-12-24T03:44:19;96932.53;;;4.44;93.05
76746;BME280;65671;49.976;20.038;2022-12-24T03:46:45;96926.00;;;4.38;92.59
76746;BME280;65671;49.976;20.038;2022-12-24T03:49:10;96931.78;;;4.47;91.89
76746;BME280;65671;49.976;20.038;2022-12-24T03:51:36;96931.38;;;4.45;92.41
76746;BME280;65671;49.976;20.038;2022-12-24T03:54:01;96929.03;;;4.33;92.68
76746;BME280;65671;49.976;20.038;2022-12-24T03:56:27;96925.63;;;4.39;92.46
76746;BME280;65671;49.976;20.038;2022-12-24T03:58:52;96933.66;;;4.36;92.63
76746;BME280;65671;49.976;20.038;2022-12-24T04:01:18;96930.59;;;4.34;92.61
76746;BME280;65671;49.976;20.038;2022-12-24T04:03:44;96931.72;;;4.33;92.39
76746;BME280;65671;49.976;20.038;2022-12-24T04:06:12;96937.09;;;4.36;92.09
76746;BME280;65671;49.976;20.038;2022-12-24T04:08:38;96931.31;;;4.34;91.94
76746;BME280;65671;49.976;20.038;2022-12-24T04:11:06;96919.81;;;4.27;92.12
76746;BME280;65671;49.976;20.038;2022-12-24T04:13:32;96920.25;;;4.39;92.00
76746;BME280;65671;49.976;20.038;2022-12-24T04:15:58;96933.25;;;4.37;91.99
76746;BME280;65671;49.976;20.038;2022-12-24T04:18:25;96933.28;;;4.41;92.02
76746;BME280;65671;49.976;20.038;2022-12-24T04:20:50;96926.38;;;4.36;91.67
76746;BME280;65671;49.976;20.038;2022-12-24T04:23:16;96935.22;;;4.47;91.44
76746;BME280;65671;49.976;20.038;2022-12-24T04:25:41;96923.31;;;4.38;91.25
76746;BME280;65671;49.976;20.038;2022-12-24T04:28:07;96927.50;;;4.32;92.21
76746;BME280;65671;49.976;20.038;2022-12-24T04:30:32;96939.38;;;4.31;91.70
76746;BME280;65671;49.976;20.038;2022-12-24T04:32:58;96939.69;;;4.19;92.25
76746;BME280;65671;49.976;20.038;2022-12-24T04:35:23;96944.63;;;4.17;92.47
76746;BME280;65671;49.976;20.038;2022-12-24T04:37:49;96933.94;;;4.20;92.17
76746;BME280;65671;49.976;20.038;2022-12-24T04:40:14;96938.56;;;4.27;92.30
76746;BME280;65671;49.976;20.038;2022-12-24T04:42:40;96944.75;;;4.38;91.88
76746;BME280;65671;49.976;20.038;2022-12-24T04:45:05;96943.63;;;4.46;91.82
76746;BME280;65671;49.976;20.038;2022-12-24T04:47:31;96946.38;;;4.57;91.58
76746;BME280;65671;49.976;20.038;2022-12-24T04:49:56;96950.63;;;4.68;91.84
76746;BME280;65671;49.976;20.038;2022-12-24T04:52:22;96950.59;;;4.61;91.91
76746;BME280;65671;49.976;20.038;2022-12-24T04:54:48;96957.50;;;4.62;91.77
76746;BME280;65671;49.976;20.038;2022-12-24T04:57:13;96946.78;;;4.62;91.63
76746;BME280;65671;49.976;20.038;2022-12-24T04:59:38;96947.53;;;4.59;91.48
76746;BME280;65671;49.976;20.038;2022-12-24T05:02:04;96952.44;;;4.46;91.71
76746;BME280;65671;49.976;20.038;2022-12-24T05:04:29;96948.25;;;4.45;91.83
76746;BME280;65671;49.976;20.038;2022-12-24T05:06:56;96951.66;;;4.42;92.08
76746;BME280;65671;49.976;20.038;2022-12-24T05:09:21;96953.16;;;4.40;92.74
76746;BME280;65671;49.976;20.038;2022-12-24T05:11:46;96953.19;;;4.36;92.59
76746;BME280;65671;49.976;20.038;2022-12-24T05:14:12;96953.53;;;4.35;92.17
76746;BME280;65671;49.976;20.038;2022-12-24T05:16:38;96953.22;;;4.47;92.59
76746;BME280;65671;49.976;20.038;2022-12-24T05:19:03;96959.38;;;4.51;92.89
76746;BME280;65671;49.976;20.038;2022-12-24T05:21:29;96960.16;;;4.62;92.79
76746;BME280;65671;49.976;20.038;2022-12-24T05:23:54;96954.78;;;4.52;92.30
76746;BME280;65671;49.976;20.038;2022-12-24T05:26:42;96965.88;;;4.54;92.32
76746;BME280;65671;49.976;20.038;2022-12-24T05:29:09;96967.41;;;4.51;92.58
76746;BME280;65671;49.976;20.038;2022-12-24T05:31:37;96972.78;;;4.51;92.94
76746;BME280;65671;49.976;20.038;2022-12-24T05:34:04;96968.53;;;4.50;92.33
76746;BME280;65671;49.976;20.038;2022-12-24T05:36:30;96966.63;;;4.50;92.66
76746;BME280;65671;49.976;20.038;2022-12-24T05:38:56;96974.69;;;4.54;92.66
76746;BME280;65671;49.976;20.038;2022-12-24T05:41:22;96976.59;;;4.50;92.92
76746;BME280;65671;49.976;20.038;2022-12-24T05:43:47;96975.03;;;4.49;92.41
76746;BME280;65671;49.976;20.038;2022-12-24T05:46:14;96973.94;;;4.54;93.04
76746;BME280;65671;49.976;20.038;2022-12-24T05:48:40;96969.31;;;4.50;93.04
76746;BME280;65671;49.976;20.038;2022-12-24T05:51:08;96974.34;;;4.59;92.91
76746;BME280;65671;49.976;20.038;2022-12-24T05:53:35;96969.31;;;4.58;92.63
76746;BME280;65671;49.976;20.038;2022-12-24T05:56:05;96967.44;;;4.62;92.99
76746;BME280;65671;49.976;20.038;2022-12-24T05:58:31;96976.63;;;4.61;92.46
76746;BME280;65671;49.976;20.038;2022-12-24T06:00:57;96969.78;;;4.74;92.64
76746;BME280;65671;49.976;20.038;2022-12-24T06:03:23;96973.25;;;4.74;92.68
76746;BME280;65671;49.976;20.038;2022-12-24T06:06:00;96966.75;;;4.75;92.32
76746;BME280;65671;49.976;20.038;2022-12-24T06:08:26;96968.69;;;4.85;92.59
76746;BME280;65671;49.976;20.038;2022-12-24T06:10:56;96970.97;;;4.80;92.57
76746;BME280;65671;49.976;20.038;2022-12-24T06:13:23;96967.13;;;4.84;91.91
76746;BME280;65671;49.976;20.038;2022-12-24T06:15:48;96969.88;;;4.95;91.54
76746;BME280;65671;49.976;20.038;2022-12-24T06:18:14;96969.47;;;4.96;92.20
76746;BME280;65671;49.976;20.038;2022-12-24T06:20:39;96978.66;;;4.99;92.42
76746;BME280;65671;49.976;20.038;2022-12-24T06:23:05;96986.72;;;4.99;91.36
76746;BME280;65671;49.976;20.038;2022-12-24T06:25:30;96984.47;;;5.12;91.02
76746;BME280;65671;49.976;20.038;2022-12-24T06:27:56;96977.22;;;5.33;90.78
76746;BME280;65671;49.976;20.038;2022-12-24T06:30:21;96976.84;;;5.28;90.40
76746;BME280;65671;49.976;20.038;2022-12-24T06:32:47;96976.84;;;5.38;90.65
76746;BME280;65671;49.976;20.038;2022-12-24T06:35:12;96978.78;;;5.41;90.72
76746;BME280;65671;49.976;20.038;2022-12-24T06:37:37;96976.47;;;5.40;90.10
76746;BME280;65671;49.976;20.038;2022-12-24T06:40:03;96983.78;;;5.57;90.58
76746;BME280;65671;49.976;20.038;2022-12-24T06:42:28;96997.56;;;5.55;89.81
76746;BME280;65671;49.976;20.038;2022-12-24T06:44:54;96996.06;;;5.76;90.26
76746;BME280;65671;49.976;20.038;2022-12-24T06:47:19;96993.00;;;5.88;89.95
76746;BME280;65671;49.976;20.038;2022-12-24T06:49:45;97012.59;;;5.88;89.30
76746;BME280;65671;49.976;20.038;2022-12-24T06:52:10;97007.97;;;5.85;89.58
76746;BME280;65671;49.976;20.038;2022-12-24T06:54:36;97001.06;;;5.81;89.57
76746;BME280;65671;49.976;20.038;2022-12-24T06:57:01;97005.66;;;5.84;89.64
76746;BME280;65671;49.976;20.038;2022-12-24T06:59:27;97020.66;;;5.92;89.89
76746;BME280;65671;49.976;20.038;2022-12-24T07:01:52;97015.25;;;5.81;90.13
76746;BME280;65671;49.976;20.038;2022-12-24T07:04:18;97025.66;;;5.90;90.06
76746;BME280;65671;49.976;20.038;2022-12-24T07:06:43;97026.38;;;5.83;89.35
76746;BME280;65671;49.976;20.038;2022-12-24T07:09:12;97030.63;;;5.91;89.30
76746;BME280;65671;49.976;20.038;2022-12-24T07:11:38;97036.34;;;5.83;89.84
76746;BME280;65671;49.976;20.038;2022-12-24T07:14:04;97039.41;;;5.85;89.35
76746;BME280;65671;49.976;20.038;2022-12-24T07:16:29;97041.34;;;5.84;89.63
76746;BME280;65671;49.976;20.038;2022-12-24T07:18:55;97047.91;;;5.90;89.27
76746;BME280;65671;49.976;20.038;2022-12-24T07:21:20;97039.41;;;5.85;89.54
76746;BME280;65671;49.976;20.038;2022-12-24T07:23:46;97043.28;;;5.84;89.13
76746;BME280;65671;49.976;20.038;2022-12-24T07:26:11;97041.38;;;5.98;89.59
76746;BME280;65671;49.976;20.038;2022-12-24T07:28:37;97051.34;;;5.91;89.38
76746;BME280;65671;49.976;20.038;2022-12-24T07:31:02;97051.69;;;5.82;89.30
76746;BME280;65671;49.976;20.038;2022-12-24T07:33:28;97063.59;;;5.81;89.21
76746;BME280;65671;49.976;20.038;2022-12-24T07:36:01;97062.44;;;5.79;89.34
76746;BME280;65671;49.976;20.038;2022-12-24T07:38:27;97063.22;;;5.76;90.17
76746;BME280;65671;49.976;20.038;2022-12-24T07:40:53;97067.44;;;5.80;90.03
76746;BME280;65671;49.976;20.038;2022-12-24T07:43:18;97075.50;;;5.80;88.71
76746;BME280;65671;49.976;20.038;2022-12-24T07:45:44;97070.91;;;5.88;89.19
76746;BME280;65671;49.976;20.038;2022-12-24T07:48:09;97067.84;;;5.89;89.49
76746;BME280;65671;49.976;20.038;2022-12-24T07:50:35;97066.72;;;5.87;89.88
76746;BME280;65671;49.976;20.038;2022-12-24T07:53:00;97071.69;;;5.92;89.22
76746;BME280;65671;49.976;20.038;2022-12-24T07:55:26;97069.75;;;5.99;89.08
76746;BME280;65671;49.976;20.038;2022-12-24T07:57:51;97062.09;;;5.94;89.49
76746;BME280;65671;49.976;20.038;2022-12-24T08:00:17;97071.69;;;6.02;89.56
76746;BME280;65671;49.976;20.038;2022-12-24T08:02:43;97081.69;;;6.09;89.53
76746;BME280;65671;49.976;20.038;2022-12-24T08:05:08;97090.16;;;6.11;88.65
76746;BME280;65671;49.976;20.038;2022-12-24T08:07:34;97077.84;;;6.13;89.08
76746;BME280;65671;49.976;20.038;2022-12-24T08:09:59;97090.13;;;6.14;88.90
76746;BME280;65671;49.976;20.038;2022-12-24T08:12:24;97087.84;;;6.16;88.58
76746;BME280;65671;49.976;20.038;2022-12-24T08:14:50;97092.03;;;6.17;88.06
76746;BME280;65671;49.976;20.038;2022-12-24T08:17:15;97092.06;;;6.32;88.31
76746;BME280;65671;49.976;20.038;2022-12-24T08:19:41;97091.28;;;6.31;87.75
76746;BME280;65671;49.976;20.038;2022-12-24T08:22:06;97101.25;;;6.24;86.86
76746;BME280;65671;49.976;20.038;2022-12-24T08:24:32;97097.81;;;6.27;87.54
76746;BME280;65671;49.976;20.038;2022-12-24T08:26:57;97099.72;;;6.37;87.06
76746;BME280;65671;49.976;20.038;2022-12-24T08:29:23;97106.25;;;6.43;87.24
76746;BME280;65671;49.976;20.038;2022-12-24T08:31:48;97099.31;;;6.56;86.53
76746;BME280;65671;49.976;20.038;2022-12-24T08:34:14;97107.81;;;6.40;86.28
76746;BME280;65671;49.976;20.038;2022-12-24T08:36:39;97115.47;;;6.45;86.52
76746;BME280;65671;49.976;20.038;2022-12-24T08:39:05;97111.59;;;6.67;85.60
76746;BME280;65671;49.976;20.038;2022-12-24T08:41:33;97114.66;;;6.77;85.07
76746;BME280;65671;49.976;20.038;2022-12-24T08:43:59;97131.53;;;6.98;85.12
76746;BME280;65671;49.976;20.038;2022-12-24T08:46:25;97133.81;;;7.14;84.25
76746;BME280;65671;49.976;20.038;2022-12-24T08:48:51;97122.94;;;7.39;83.41
76746;BME280;65671;49.976;20.038;2022-12-24T08:51:16;97141.44;;;7.29;82.95
76746;BME280;65671;49.976;20.038;2022-12-24T08:53:44;97129.84;;;7.43;82.87
76746;BME280;65671;49.976;20.038;2022-12-24T08:56:10;97123.00;;;7.24;83.25
76746;BME280;65671;49.976;20.038;2022-12-24T08:58:36;97118.75;;;7.30;82.21
76746;BME280;65671;49.976;20.038;2022-12-24T09:01:09;97119.09;;;7.36;82.73
76746;BME280;65671;49.976;20.038;2022-12-24T09:03:36;97132.56;;;7.32;82.37
76746;BME280;65671;49.976;20.038;2022-12-24T09:06:03;97123.69;;;7.43;82.15
76746;BME280;65671;49.976;20.038;2022-12-24T09:08:30;97131.69;;;7.64;81.78
76746;BME280;65671;49.976;20.038;2022-12-24T09:11:02;97129.34;;;7.66;81.24
76746;BME280;65671;49.976;20.038;2022-12-24T09:13:27;97123.50;;;7.81;81.21
76746;BME280;65671;49.976;20.038;2022-12-24T09:15:54;97128.09;;;7.88;80.48
76746;BME280;65671;49.976;20.038;2022-12-24T09:18:19;97127.66;;;7.93;80.06
76746;BME280;65671;49.976;20.038;2022-12-24T09:20:45;97135.56;;;8.21;79.22
76746;BME280;65671;49.976;20.038;2022-12-24T09:23:11;97145.53;;;8.31;78.07
76746;BME280;65671;49.976;20.038;2022-12-24T09:25:45;97146.69;;;8.27;78.32
76746;BME280;65671;49.976;20.038;2022-12-24T09:28:11;97145.97;;;8.19;78.48
76746;BME280;65671;49.976;20.038;2022-12-24T09:30:37;97152.53;;;8.15;79.56
76746;BME280;65671;49.976;20.038;2022-12-24T09:33:02;97143.25;;;8.23;78.72
76746;BME280;65671;49.976;20.038;2022-12-24T09:35:28;97154.16;;;8.09;79.05
76746;BME280;65671;49.976;20.038;2022-12-24T09:37:53;97157.22;;;8.11;78.69
76746;BME280;65671;49.976;20.038;2022-12-24T09:40:38;97153.84;;;7.96;79.92
76746;BME280;65671;49.976;20.038;2022-12-24T09:43:28;97162.63;;;8.04;80.01
76746;BME280;65671;49.976;20.038;2022-12-24T09:46:20;97159.16;;;8.03;80.00
76746;BME280;65671;49.976;20.038;2022-12-24T09:48:48;97155.09;;;7.74;81.73
76746;BME280;65671;49.976;20.038;2022-12-24T09:51:30;97154.75;;;7.65;82.06
76746;BME280;65671;49.976;20.038;2022-12-24T09:54:23;97167.41;;;7.75;81.06
76746;BME280;65671;49.976;20.038;2022-12-24T09:56:50;97173.19;;;7.77;80.54
76746;BME280;65671;49.976;20.038;2022-12-24T09:59:24;97182.44;;;7.76;81.26
76746;BME280;65671;49.976;20.038;2022-12-24T10:01:53;97177.84;;;7.73;81.02
76746;BME280;65671;49.976;20.038;2022-12-24T10:04:21;97185.09;;;7.79;81.31
76746;BME280;65671;49.976;20.038;2022-12-24T10:06:53;97195.84;;;7.90;79.51
76746;BME280;65671;49.976;20.038;2022-12-24T10:26:26;97204.66;;;7.98;78.21
76746;BME280;65671;49.976;20.038;2022-12-24T10:28:56;97214.22;;;8.09;77.43
76746;BME280;65671;49.976;20.038;2022-12-24T10:31:25;97221.47;;;8.19;77.23
76746;BME280;65671;49.976;20.038;2022-12-24T10:34:01;97221.78;;;8.39;76.30
76746;BME280;65671;49.976;20.038;2022-12-24T10:36:30;97224.13;;;8.33;76.04
76746;BME280;65671;49.976;20.038;2022-12-24T10:38:56;97215.56;;;8.46;75.85
76746;BME280;65671;49.976;20.038;2022-12-24T10:41:24;97218.63;;;8.48;75.31
76746;BME280;65671;49.976;20.038;2022-12-24T10:43:51;97212.19;;;8.34;76.06
76746;BME280;65671;49.976;20.038;2022-12-24T10:46:22;97214.16;;;8.20;76.75
76746;BME280;65671;49.976;20.038;2022-12-24T10:48:58;97219.13;;;8.32;76.20
76746;BME280;65671;49.976;20.038;2022-12-24T10:51:52;97216.09;;;8.19;76.49
76746;BME280;65671;49.976;20.038;2022-12-24T10:54:26;97218.81;;;8.16;76.53
76746;BME280;65671;49.976;20.038;2022-12-24T10:56:59;97225.31;;;8.22;75.94
76746;BME280;65671;49.976;20.038;2022-12-24T11:01:59;97224.47;;;8.35;74.95
76746;BME280;65671;49.976;20.038;2022-12-24T11:04:31;97209.50;;;8.24;75.19
76746;BME280;65671;49.976;20.038;2022-12-24T11:07:00;97229.22;;;8.10;76.47
76746;BME280;65671;49.976;20.038;2022-12-24T11:09:30;97226.09;;;8.29;75.36
76746;BME280;65671;49.976;20.038;2022-12-24T11:11:57;97234.97;;;8.16;76.46
76746;BME280;65671;49.976;20.038;2022-12-24T11:14:24;97240.38;;;8.12;75.99
76746;BME280;65671;49.976;20.038;2022-12-24T11:16:55;97241.13;;;8.23;75.30
76746;BME280;65671;49.976;20.038;2022-12-24T11:19:36;97252.69;;;8.20;76.09
76746;BME280;65671;49.976;20.038;2022-12-24T11:22:05;97251.56;;;8.14;75.70
76746;BME280;65671;49.976;20.038;2022-12-24T11:24:33;97259.25;;;8.16;76.30
76746;BME280;65671;49.976;20.038;2022-12-24T11:27:32;97268.50;;;8.15;76.29
76746;BME280;65671;49.976;20.038;2022-12-24T11:30:27;97262.44;;;7.93;76.95
76746;BME280;65671;49.976;20.038;2022-12-24T11:35:26;97282.47;;;7.92;77.50
76746;BME280;65671;49.976;20.038;2022-12-24T11:40:35;97294.78;;;7.93;77.00
76746;BME280;65671;49.976;20.038;2022-12-24T11:43:02;97291.34;;;7.85;78.49
76746;BME280;65671;49.976;20.038;2022-12-24T11:45:29;97297.91;;;7.74;78.66
76746;BME280;65671;49.976;20.038;2022-12-24T11:47:56;97299.47;;;7.68;79.94
76746;BME280;65671;49.976;20.038;2022-12-24T11:50:31;97287.94;;;7.67;78.93
76746;BME280;65671;49.976;20.038;2022-12-24T11:55:49;97285.19;;;7.85;77.92
76746;BME280;65671;49.976;20.038;2022-12-24T12:03:51;97313.69;;;7.79;78.20
76746;BME280;65671;49.976;20.038;2022-12-24T12:06:41;97317.97;;;7.59;79.57
76746;BME280;65671;49.976;20.038;2022-12-24T12:09:16;97319.94;;;7.41;81.12
76746;BME280;65671;49.976;20.038;2022-12-24T12:11:52;97332.25;;;7.35;81.52
76746;BME280;65671;49.976;20.038;2022-12-24T12:14:28;97321.44;;;7.42;81.23
76746;BME280;65671;49.976;20.038;2022-12-24T12:20:01;97339.94;;;7.40;81.98
76746;BME280;65671;49.976;20.038;2022-12-24T12:22:57;97350.31;;;7.23;82.48
76746;BME280;65671;49.976;20.038;2022-12-24T12:25:42;97360.31;;;7.26;83.33
76746;BME280;65671;49.976;20.038;2022-12-24T12:28:27;97365.28;;;7.00;84.85
76746;BME280;65671;49.976;20.038;2022-12-24T12:31:21;97376.06;;;7.03;84.92
76746;BME280;65671;49.976;20.038;2022-12-24T12:34:20;97376.81;;;7.00;85.72
76746;BME280;65671;49.976;20.038;2022-12-24T12:36:53;97382.22;;;7.07;85.02
76746;BME280;65671;49.976;20.038;2022-12-24T12:39:21;97381.84;;;7.09;84.25
76746;BME280;65671;49.976;20.038;2022-12-24T12:50:17;97406.78;;;6.81;86.78
76746;BME280;65671;49.976;20.038;2022-12-24T12:58:32;97424.44;;;6.75;87.16
76746;BME280;65671;49.976;20.038;2022-12-24T13:01:16;97424.78;;;6.63;87.59
76746;BME280;65671;49.976;20.038;2022-12-24T13:04:32;97430.97;;;6.74;86.87
76746;BME280;65671;49.976;20.038;2022-12-24T13:20:24;97471.59;;;6.48;88.74
76746;BME280;65671;49.976;20.038;2022-12-24T13:22:56;97446.56;;;6.33;88.73
76746;BME280;65671;49.976;20.038;2022-12-24T13:25:37;97459.63;;;6.38;88.15
76746;BME280;65671;49.976;20.038;2022-12-24T13:30:52;97489.22;;;6.42;89.09
76746;BME280;65671;49.976;20.038;2022-12-24T13:36:08;97498.72;;;6.22;90.23
76746;BME280;65671;49.976;20.038;2022-12-24T13:38:54;97491.69;;;6.06;90.95
76746;BME280;65671;49.976;20.038;2022-12-24T13:44:13;97500.53;;;6.07;91.19
76746;BME280;65671;49.976;20.038;2022-12-24T13:46:58;97509.69;;;6.02;91.49
76746;BME280;65671;49.976;20.038;2022-12-24T14:05:28;97552.78;;;5.69;92.30
76746;BME280;65671;49.976;20.038;2022-12-24T14:07:57;97555.81;;;5.68;92.43
76746;BME280;65671;49.976;20.038;2022-12-24T14:10:26;97555.03;;;5.63;92.25
76746;BME280;65671;49.976;20.038;2022-12-24T14:12:53;97554.25;;;5.63;92.09
76746;BME280;65671;49.976;20.038;2022-12-24T14:18:17;97568.03;;;5.61;92.79
76746;BME280;65671;49.976;20.038;2022-12-24T14:20:48;97573.00;;;5.59;92.15
76746;BME280;65671;49.976;20.038;2022-12-24T14:23:30;97577.22;;;5.57;92.88
76746;BME280;65671;49.976;20.038;2022-12-24T14:25:57;97587.56;;;5.58;92.72
76746;BME280;65671;49.976;20.038;2022-12-24T14:28:39;97590.25;;;5.55;92.98
76746;BME280;65671;49.976;20.038;2022-12-24T14:31:13;97589.81;;;5.53;93.60
76746;BME280;65671;49.976;20.038;2022-12-24T14:33:40;97591.66;;;5.45;93.40
76746;BME280;65671;49.976;20.038;2022-12-24T14:36:05;97598.25;;;5.51;93.43
76746;BME280;65671;49.976;20.038;2022-12-24T14:38:32;97601.69;;;5.48;93.49
76746;BME280;65671;49.976;20.038;2022-12-24T14:46:44;97612.09;;;5.53;93.14
76746;BME280;65671;49.976;20.038;2022-12-24T14:50:21;97617.16;;;5.62;93.07
76746;BME280;65671;49.976;20.038;2022-12-24T14:54:48;97621.84;;;5.69;92.79
76746;BME280;65671;49.976;20.038;2022-12-24T14:59:47;97639.63;;;5.80;92.56
76746;BME280;65671;49.976;20.038;2022-12-24T15:05:04;97657.97;;;5.75;92.30
76746;BME280;65671;49.976;20.038;2022-12-24T15:07:31;97647.91;;;5.68;92.77
76746;BME280;65671;49.976;20.038;2022-12-24T15:09:57;97659.16;;;5.77;93.20
76746;BME280;65671;49.976;20.038;2022-12-24T15:12:23;97646.78;;;5.69;93.06
76746;BME280;65671;49.976;20.038;2022-12-24T15:14:49;97652.97;;;5.73;92.45
76746;BME280;65671;49.976;20.038;2022-12-24T15:17:15;97659.44;;;5.69;92.25
76746;BME280;65671;49.976;20.038;2022-12-24T15:19:43;97660.66;;;5.75;92.96